createdAt,value
2018-11-23T00:00:32.647Z,23.22
2018-11-23T00:03:02.588Z,20.48
2018-11-23T00:05:32.605Z,22.82
2018-11-23T00:08:03.460Z,21.15
2018-11-23T00:10:33.844Z,22.22
2018-11-23T00:13:03.370Z,22.17
2018-11-23T00:15:33.104Z,21.52
2018-11-23T00:18:02.325Z,24.07
2018-11-23T00:20:31.846Z,21.25
2018-11-23T00:23:00.570Z,20.20
2018-11-23T00:25:30.045Z,21.97
2018-11-23T00:27:59.876Z,22.52
2018-11-23T00:30:30.313Z,20.10
2018-11-23T00:32:59.499Z,24.05
2018-11-23T00:35:30.299Z,21.05
2018-11-23T00:37:59.724Z,23.20
2018-11-23T00:40:30.184Z,20.50
2018-11-23T00:43:00.120Z,18.48
2018-11-23T00:45:29.146Z,23.47
2018-11-23T00:47:58.776Z,24.10
2018-11-23T00:50:28.384Z,19.82
2018-11-23T00:52:58.865Z,18.95
2018-11-23T00:55:28.401Z,20.00
2018-11-23T00:57:57.457Z,20.10
2018-11-23T01:00:28.722Z,21.77
2018-11-23T01:02:58.305Z,25.88
2018-11-23T01:05:27.492Z,19.40
2018-11-23T01:07:56.107Z,18.90
2018-11-23T01:10:26.139Z,18.15
2018-11-23T01:12:55.821Z,18.73
2018-11-23T01:15:24.807Z,17.50
2018-11-23T01:17:53.720Z,18.65
2018-11-23T01:20:23.882Z,18.80
2018-11-23T01:22:54.452Z,16.80
2018-11-23T01:25:24.184Z,18.25
2018-11-23T01:27:53.562Z,19.42
2018-11-23T01:30:25.819Z,16.77
2018-11-23T01:32:54.377Z,16.25
2018-11-23T01:35:23.305Z,18.80
2018-11-23T01:37:51.835Z,18.37
2018-11-23T01:40:22.879Z,16.82
2018-11-23T01:42:52.799Z,17.55
2018-11-23T01:45:22.198Z,17.07
2018-11-23T01:47:51.376Z,17.73
2018-11-23T01:50:22.109Z,16.07
2018-11-23T01:52:51.275Z,17.48
2018-11-23T01:55:21.157Z,16.07
2018-11-23T01:57:49.835Z,15.00
2018-11-23T02:00:19.925Z,16.52
2018-11-23T02:02:49.409Z,16.42
2018-11-23T02:05:18.888Z,15.88
2018-11-23T02:07:47.861Z,18.02
2018-11-23T02:10:17.449Z,15.93
2018-11-23T02:12:46.920Z,16.55
2018-11-23T02:15:17.776Z,16.97
2018-11-23T02:17:46.650Z,16.85
2018-11-23T02:20:16.653Z,16.12
2018-11-23T02:22:45.700Z,17.60
2018-11-23T02:25:15.423Z,16.48
2018-11-23T02:27:44.786Z,15.55
2018-11-23T02:30:18.331Z,15.55
2018-11-23T02:32:47.831Z,16.82
2018-11-23T02:35:17.175Z,17.48
2018-11-23T02:37:46.208Z,17.07
2018-11-23T02:40:16.324Z,16.65
2018-11-23T02:42:45.275Z,17.60
2018-11-23T02:45:16.150Z,16.57
2018-11-23T02:47:45.650Z,16.52
2018-11-23T02:50:14.522Z,17.32
2018-11-23T02:52:44.127Z,16.45
2018-11-23T02:55:14.348Z,16.12
2018-11-23T02:57:43.516Z,15.23
2018-11-23T03:00:17.103Z,15.80
2018-11-23T03:02:45.791Z,18.12
2018-11-23T03:05:16.617Z,16.17
2018-11-23T03:07:45.553Z,14.20
2018-11-23T03:10:15.085Z,15.08
2018-11-23T03:12:44.464Z,15.53
2018-11-23T03:15:15.108Z,15.28
2018-11-23T03:17:44.590Z,15.18
2018-11-23T03:20:15.719Z,14.25
2018-11-23T03:22:44.483Z,15.13
2018-11-23T03:25:14.271Z,15.48
2018-11-23T03:27:42.974Z,14.38
2018-11-23T03:30:14.832Z,15.60
2018-11-23T03:32:44.575Z,14.10
2018-11-23T03:35:13.396Z,16.02
2018-11-23T03:37:48.835Z,15.32
2018-11-23T03:40:18.311Z,15.32
2018-11-23T03:42:47.841Z,14.03
2018-11-23T03:45:18.677Z,15.83
2018-11-23T03:47:48.255Z,14.68
2018-11-23T03:50:17.800Z,15.03
2018-11-23T03:52:46.894Z,15.18
2018-11-23T03:55:15.432Z,14.07
2018-11-23T03:57:44.217Z,14.98
2018-11-23T04:00:17.272Z,14.15
2018-11-23T04:02:44.149Z,15.48
2018-11-23T04:05:13.653Z,14.70
2018-11-23T04:07:43.337Z,14.70
2018-11-23T04:10:13.949Z,14.38
2018-11-23T04:12:43.441Z,14.18
2018-11-23T04:15:12.881Z,15.10
2018-11-23T04:17:42.466Z,15.10
2018-11-23T04:20:13.502Z,15.68
2018-11-23T04:22:42.806Z,14.87
2018-11-23T04:25:12.288Z,14.53
2018-11-23T04:27:42.391Z,15.05
2018-11-23T04:30:14.133Z,14.95
2018-11-23T04:32:43.651Z,15.50
2018-11-23T04:35:14.148Z,15.38
2018-11-23T04:37:43.762Z,15.20
2018-11-23T04:40:13.839Z,15.72
2018-11-23T04:42:42.864Z,16.05
2018-11-23T04:45:12.244Z,14.33
2018-11-23T04:47:41.218Z,14.93
2018-11-23T04:50:12.713Z,17.30
2018-11-23T04:52:41.891Z,14.58
2018-11-23T04:55:11.698Z,14.60
2018-11-23T04:57:40.950Z,13.90
2018-11-23T05:00:12.618Z,14.13
2018-11-23T05:02:41.629Z,14.60
2018-11-23T05:05:12.068Z,15.50
2018-11-23T05:07:43.342Z,14.68
2018-11-23T05:10:13.586Z,13.58
2018-11-23T05:12:42.939Z,13.22
2018-11-23T05:15:13.234Z,14.75
2018-11-23T05:17:42.515Z,13.58
2018-11-23T05:20:11.893Z,14.00
2018-11-23T05:22:41.763Z,14.03
2018-11-23T05:25:12.007Z,18.35
2018-11-23T05:27:41.498Z,15.65
2018-11-23T05:30:14.116Z,13.65
2018-11-23T05:32:43.082Z,15.68
2018-11-23T05:35:13.247Z,13.00
2018-11-23T05:37:41.862Z,15.32
2018-11-23T05:40:13.163Z,15.40
2018-11-23T05:42:42.114Z,14.83
2018-11-23T05:45:20.434Z,15.83
2018-11-23T05:47:49.002Z,15.23
2018-11-23T05:50:19.389Z,16.97
2018-11-23T05:52:48.316Z,13.05
2018-11-23T05:55:17.280Z,17.30
2018-11-23T05:57:46.823Z,13.90
2018-11-23T06:00:21.460Z,14.05
2018-11-23T06:02:50.868Z,14.30
2018-11-23T06:05:19.654Z,14.40
2018-11-23T06:07:49.049Z,14.20
2018-11-23T06:10:19.597Z,16.27
2018-11-23T06:12:49.187Z,14.15
2018-11-23T06:15:20.665Z,13.50
2018-11-23T06:17:49.983Z,14.80
2018-11-23T06:20:21.802Z,14.70
2018-11-23T06:22:52.045Z,15.20
2018-11-23T06:25:53.308Z,14.63
2018-11-23T06:28:22.031Z,17.20
2018-11-23T06:30:51.435Z,14.58
2018-11-23T06:33:38.952Z,14.68
2018-11-23T06:36:07.921Z,14.28
2018-11-23T06:38:37.403Z,14.83
2018-11-23T06:41:10.551Z,14.00
2018-11-23T06:43:36.847Z,13.85
2018-11-23T06:46:07.505Z,14.03
2018-11-23T06:48:36.575Z,13.70
2018-11-23T06:51:05.944Z,14.58
2018-11-23T06:53:34.644Z,14.18
2018-11-23T06:56:04.024Z,13.58
2018-11-23T06:58:32.754Z,13.70
2018-11-23T07:01:01.519Z,15.05
2018-11-23T07:03:30.893Z,13.60
2018-11-23T07:06:00.093Z,14.43
2018-11-23T07:08:29.157Z,12.82
2018-11-23T07:11:00.495Z,13.10
2018-11-23T07:13:30.511Z,13.48
2018-11-23T07:15:59.430Z,13.72
2018-11-23T07:18:28.531Z,14.43
2018-11-23T07:20:57.348Z,15.25
2018-11-23T07:23:26.548Z,14.18
2018-11-23T07:25:55.624Z,15.60
2018-11-23T07:28:25.418Z,15.63
2018-11-23T07:30:54.388Z,16.48
2018-11-23T07:33:23.873Z,18.42
2018-11-23T07:35:52.827Z,19.07
2018-11-23T07:38:21.815Z,15.70
2018-11-23T07:41:02.709Z,16.65
2018-11-23T07:43:31.863Z,13.70
2018-11-23T07:46:00.680Z,16.50
2018-11-23T07:48:29.442Z,13.00
2018-11-23T07:50:58.374Z,14.58
2018-11-23T07:53:28.259Z,14.00
2018-11-23T07:55:57.484Z,13.05
2018-11-23T07:58:26.994Z,13.98
2018-11-23T08:00:56.756Z,13.32
2018-11-23T08:03:25.689Z,12.78
2018-11-23T08:05:54.721Z,14.30
2018-11-23T08:08:24.601Z,13.95
2018-11-23T08:10:52.401Z,12.28
2018-11-23T08:13:21.550Z,13.90
2018-11-23T08:15:50.975Z,13.25
2018-11-23T08:18:19.555Z,12.63
2018-11-23T08:20:48.543Z,13.08
2018-11-23T08:23:17.512Z,14.68
2018-11-23T08:25:46.222Z,13.43
2018-11-23T08:28:15.575Z,12.18
2018-11-23T08:30:44.211Z,13.70
2018-11-23T08:33:13.074Z,12.95
2018-11-23T08:35:42.288Z,13.80
2018-11-23T08:38:10.930Z,14.58
2018-11-23T08:40:40.260Z,15.00
2018-11-23T08:43:09.081Z,14.35
2018-11-23T08:45:38.651Z,14.33
2018-11-23T08:48:07.298Z,13.48
2018-11-23T08:50:36.659Z,15.70
2018-11-23T08:53:05.950Z,15.28
2018-11-23T08:55:34.773Z,12.73
2018-11-23T08:58:03.651Z,12.85
2018-11-23T09:00:32.835Z,12.73
2018-11-23T09:03:02.692Z,13.65
2018-11-23T09:05:32.051Z,12.10
2018-11-23T09:08:00.959Z,13.35
2018-11-23T09:10:31.008Z,13.53
2018-11-23T09:13:01.801Z,14.15
2018-11-23T09:15:31.392Z,13.45
2018-11-23T09:18:00.121Z,12.58
2018-11-23T09:20:28.872Z,11.50
2018-11-23T09:22:57.446Z,13.22
2018-11-23T09:25:26.423Z,12.43
2018-11-23T09:27:55.411Z,13.75
2018-11-23T09:30:25.437Z,12.30
2018-11-23T09:32:54.893Z,12.30
2018-11-23T09:35:24.054Z,12.82
2018-11-23T09:37:53.511Z,13.68
2018-11-23T09:40:24.339Z,14.00
2018-11-23T09:42:53.885Z,12.75
2018-11-23T09:45:24.155Z,12.82
2018-11-23T09:47:54.995Z,13.30
2018-11-23T09:50:25.140Z,12.93
2018-11-23T09:52:54.944Z,14.00
2018-11-23T09:55:24.314Z,13.15
2018-11-23T09:57:52.923Z,12.28
2018-11-23T10:00:24.229Z,12.05
2018-11-23T10:02:54.290Z,12.93
2018-11-23T10:05:23.692Z,12.20
2018-11-23T10:07:54.337Z,12.40
2018-11-23T10:10:23.869Z,12.98
2018-11-23T10:12:53.041Z,12.47
2018-11-23T10:15:22.918Z,14.23
2018-11-23T10:17:51.835Z,12.05
2018-11-23T10:20:22.919Z,12.88
2018-11-23T10:22:51.572Z,13.85
2018-11-23T10:25:22.705Z,12.58
2018-11-23T10:27:51.873Z,12.45
2018-11-23T10:30:23.000Z,12.60
2018-11-23T10:32:52.967Z,13.65
2018-11-23T10:35:22.519Z,12.68
2018-11-23T10:37:52.720Z,13.40
2018-11-23T10:40:24.184Z,12.93
2018-11-23T10:42:53.386Z,11.88
2018-11-23T10:45:26.229Z,11.88
2018-11-23T10:47:58.871Z,10.48
2018-11-23T10:50:29.394Z,13.35
2018-11-23T10:52:58.411Z,12.18
2018-11-23T10:55:33.060Z,12.18
2018-11-23T10:58:02.544Z,12.53
2018-11-23T11:00:36.955Z,11.75
2018-11-23T11:03:12.198Z,11.53
2018-11-23T11:05:46.125Z,13.13
2018-11-23T11:08:14.697Z,13.90
2018-11-23T11:10:43.887Z,12.90
2018-11-23T11:13:12.957Z,12.20
2018-11-23T11:15:42.316Z,12.15
2018-11-23T11:18:11.067Z,11.65
2018-11-23T11:20:40.621Z,12.03
2018-11-23T11:23:10.022Z,12.58
2018-11-23T11:25:39.241Z,11.83
2018-11-23T11:28:07.871Z,11.80
2018-11-23T11:30:38.319Z,13.30
2018-11-23T11:33:08.005Z,11.12
2018-11-23T11:35:37.411Z,12.07
2018-11-23T11:38:06.125Z,9.50
2018-11-23T11:40:35.579Z,10.85
2018-11-23T11:43:04.782Z,12.82
2018-11-23T11:45:33.367Z,12.43
2018-11-23T11:48:02.243Z,10.08
2018-11-23T11:50:31.061Z,12.75
2018-11-23T11:52:59.692Z,10.20
2018-11-23T11:55:28.626Z,10.60
2018-11-23T11:57:57.443Z,9.95
2018-11-23T12:00:26.960Z,11.53
2018-11-23T12:02:56.065Z,11.08
2018-11-23T12:05:25.333Z,11.38
2018-11-23T12:07:54.657Z,9.13
2018-11-23T12:10:25.000Z,10.38
2018-11-23T12:12:54.911Z,8.80
2018-11-23T12:15:24.596Z,10.80
2018-11-23T12:17:53.975Z,10.38
2018-11-23T12:20:24.034Z,8.55
2018-11-23T12:22:52.909Z,8.30
2018-11-23T12:25:22.497Z,7.95
2018-11-23T12:27:51.465Z,9.60
2018-11-23T12:30:21.335Z,9.90
2018-11-23T12:32:51.101Z,8.98
2018-11-23T12:35:20.713Z,11.53
2018-11-23T12:37:50.277Z,9.48
2018-11-23T12:40:19.775Z,10.05
2018-11-23T12:42:49.478Z,10.68
2018-11-23T12:45:19.680Z,8.80
2018-11-23T12:47:49.229Z,9.93
2018-11-23T12:50:19.903Z,10.60
2018-11-23T12:52:49.307Z,10.20
2018-11-23T12:55:18.821Z,9.95
2018-11-23T12:57:47.448Z,10.25
2018-11-23T13:00:23.179Z,10.68
2018-11-23T13:02:53.408Z,11.45
2018-11-23T13:05:24.114Z,11.38
2018-11-23T13:07:54.071Z,10.93
2018-11-23T13:10:24.061Z,11.75
2018-11-23T13:12:53.633Z,11.57
2018-11-23T13:15:25.119Z,12.13
2018-11-23T13:17:54.420Z,11.93
2018-11-23T13:20:23.507Z,12.15
2018-11-23T13:22:52.298Z,11.60
2018-11-23T13:25:27.117Z,11.28
2018-11-23T13:27:56.234Z,12.15
2018-11-23T13:30:26.731Z,12.88
2018-11-23T13:32:55.365Z,14.07
2018-11-23T13:35:24.210Z,13.40
2018-11-23T13:37:52.940Z,13.00
2018-11-23T13:40:23.855Z,13.30
2018-11-23T13:42:53.876Z,12.65
2018-11-23T13:45:24.310Z,13.50
2018-11-23T13:47:53.645Z,14.20
2018-11-23T13:50:23.631Z,12.95
2018-11-23T13:52:53.835Z,12.82
2018-11-23T13:55:22.826Z,12.30
2018-11-23T13:57:51.646Z,13.80
2018-11-23T14:00:22.588Z,13.13
2018-11-23T14:02:52.099Z,12.30
2018-11-23T14:05:25.668Z,13.40
2018-11-23T14:07:56.121Z,12.47
2018-11-23T14:10:26.098Z,12.05
2018-11-23T14:12:55.016Z,12.20
2018-11-23T14:15:25.315Z,12.28
2018-11-23T14:17:55.118Z,12.13
2018-11-23T14:20:24.972Z,12.80
2018-11-23T14:22:54.137Z,11.90
2018-11-23T14:25:24.069Z,12.50
2018-11-23T14:27:53.305Z,12.30
2018-11-23T14:30:24.715Z,12.93
2018-11-23T14:32:53.716Z,11.73
2018-11-23T14:35:25.057Z,10.78
2018-11-23T14:37:54.492Z,12.93
2018-11-23T14:40:23.530Z,11.85
2018-11-23T14:42:52.898Z,10.10
2018-11-23T14:45:27.998Z,10.95
2018-11-23T14:47:58.468Z,12.75
2018-11-23T14:50:29.798Z,12.30
2018-11-23T14:52:59.265Z,12.03
2018-11-23T14:55:30.075Z,11.38
2018-11-23T14:57:59.821Z,11.00
2018-11-23T15:00:35.025Z,11.50
2018-11-23T15:03:05.590Z,12.18
2018-11-23T15:05:36.378Z,12.18
2018-11-23T15:08:05.468Z,10.50
2018-11-23T15:10:35.458Z,12.53
2018-11-23T15:13:05.468Z,11.97
2018-11-23T15:15:36.773Z,11.33
2018-11-23T15:18:06.671Z,10.75
2018-11-23T15:20:38.444Z,11.50
2018-11-23T15:23:08.821Z,12.88
2018-11-23T15:25:38.158Z,11.33
2018-11-23T15:28:08.325Z,12.07
2018-11-23T15:30:38.038Z,11.38
2018-11-23T15:33:07.804Z,12.07
2018-11-23T15:35:37.565Z,10.98
2018-11-23T15:38:10.356Z,10.50
2018-11-23T15:40:37.675Z,8.58
2018-11-23T15:43:07.935Z,11.95
2018-11-23T15:45:37.015Z,11.12
2018-11-23T15:48:06.687Z,12.13
2018-11-23T15:50:37.982Z,11.05
2018-11-23T15:53:08.054Z,12.88
2018-11-23T15:55:38.787Z,12.50
2018-11-23T15:58:12.031Z,11.45
2018-11-23T16:00:43.871Z,12.25
2018-11-23T16:03:13.652Z,11.05
2018-11-23T16:05:42.783Z,11.35
2018-11-23T16:08:13.692Z,11.75
2018-11-23T16:10:42.705Z,12.73
2018-11-23T16:13:12.287Z,13.40
2018-11-23T16:15:41.879Z,11.97
2018-11-23T16:18:11.864Z,13.35
2018-11-23T16:20:42.457Z,12.93
2018-11-23T16:23:12.592Z,11.33
2018-11-23T16:25:42.618Z,11.78
2018-11-23T16:28:12.238Z,12.15
2018-11-23T16:30:43.291Z,12.55
2018-11-23T16:33:13.522Z,12.37
2018-11-23T16:35:42.494Z,11.43
2018-11-23T16:38:12.867Z,11.18
2018-11-23T16:40:43.246Z,10.80
2018-11-23T16:43:13.180Z,11.43
2018-11-23T16:45:42.291Z,11.70
2018-11-23T16:48:12.085Z,11.73
2018-11-23T16:50:40.940Z,10.63
2018-11-23T16:53:10.046Z,11.08
2018-11-23T16:55:39.596Z,13.50
2018-11-23T16:58:10.733Z,11.60
2018-11-23T17:00:40.610Z,12.05
2018-11-23T17:03:11.260Z,11.70
2018-11-23T17:05:48.517Z,11.05
2018-11-23T17:08:17.411Z,12.10
2018-11-23T17:10:46.583Z,11.12
2018-11-23T17:13:16.173Z,11.30
2018-11-23T17:15:45.574Z,11.90
2018-11-23T17:18:15.230Z,10.45
2018-11-23T17:20:43.980Z,11.97
2018-11-23T17:23:13.449Z,10.00
2018-11-23T17:25:42.690Z,9.70
2018-11-23T17:28:12.569Z,9.75
2018-11-23T17:30:41.459Z,10.93
2018-11-23T17:33:10.686Z,9.60
2018-11-23T17:35:40.012Z,11.03
2018-11-23T17:38:09.132Z,10.23
2018-11-23T17:40:39.150Z,10.35
2018-11-23T17:43:08.493Z,10.38
2018-11-23T17:45:38.082Z,10.30
2018-11-23T17:48:07.257Z,9.78
2018-11-23T17:50:37.213Z,9.00
2018-11-23T17:53:06.533Z,10.15
2018-11-23T17:55:36.498Z,9.93
2018-11-23T17:58:05.950Z,10.88
2018-11-23T18:00:39.312Z,10.93
2018-11-23T18:03:06.111Z,9.88
2018-11-23T18:05:36.051Z,9.15
2018-11-23T18:08:05.687Z,9.20
2018-11-23T18:10:35.038Z,9.53
2018-11-23T18:13:04.160Z,10.70
2018-11-23T18:15:33.995Z,10.35
2018-11-23T18:18:03.595Z,9.45
2018-11-23T18:20:32.826Z,9.80
2018-11-23T18:23:03.303Z,10.18
2018-11-23T18:25:36.008Z,9.25
2018-11-23T18:28:05.009Z,11.12
2018-11-23T18:30:34.593Z,10.65
2018-11-23T18:33:05.669Z,9.95
2018-11-23T18:35:35.007Z,10.10
2018-11-23T18:38:04.273Z,10.23
2018-11-23T18:40:37.582Z,11.30
2018-11-23T18:43:03.308Z,9.73
2018-11-23T18:45:31.948Z,10.55
2018-11-23T18:48:01.614Z,10.85
2018-11-23T18:50:30.943Z,11.15
2018-11-23T18:53:00.826Z,9.35
2018-11-23T18:55:30.467Z,9.70
2018-11-23T18:57:59.807Z,10.93
2018-11-23T19:00:28.854Z,10.78
2018-11-23T19:02:57.878Z,10.18
2018-11-23T19:05:28.050Z,11.28
2018-11-23T19:07:57.008Z,10.70
2018-11-23T19:10:26.255Z,9.35
2018-11-23T19:12:56.011Z,11.03
2018-11-23T19:15:25.981Z,11.08
2018-11-23T19:17:55.101Z,10.90
2018-11-23T19:20:24.458Z,10.18
2018-11-23T19:22:54.743Z,11.90
2018-11-23T19:25:23.462Z,11.12
2018-11-23T19:27:52.871Z,11.28
2018-11-23T19:30:28.133Z,9.75
2018-11-23T19:32:52.325Z,12.20
2018-11-23T19:35:22.661Z,10.20
2018-11-23T19:37:51.537Z,10.18
2018-11-23T19:40:20.530Z,9.95
2018-11-23T19:42:50.284Z,10.10
2018-11-23T19:45:20.028Z,11.15
2018-11-23T19:47:49.527Z,10.03
2018-11-23T19:50:18.815Z,10.32
2018-11-23T19:52:47.455Z,10.28
2018-11-23T19:55:17.694Z,10.55
2018-11-23T19:57:46.628Z,11.18
2018-11-23T20:00:18.004Z,10.68
2018-11-23T20:02:46.803Z,10.50
2018-11-23T20:05:15.830Z,8.60
2018-11-23T20:07:45.590Z,10.38
2018-11-23T20:10:17.180Z,10.75
2018-11-23T20:12:46.963Z,10.00
2018-11-23T20:15:17.799Z,9.48
2018-11-23T20:17:49.903Z,9.55
2018-11-23T20:20:19.441Z,10.82
2018-11-23T20:22:49.086Z,10.85
2018-11-23T20:25:19.314Z,10.80
2018-11-23T20:27:49.568Z,9.63
2018-11-23T20:30:19.365Z,10.15
2018-11-23T20:32:48.106Z,9.78
2018-11-23T20:35:19.564Z,9.80
2018-11-23T20:37:49.154Z,9.45
2018-11-23T20:40:19.508Z,9.35
2018-11-23T20:42:48.101Z,9.08
2018-11-23T20:45:17.443Z,9.05
2018-11-23T20:47:46.160Z,8.85
2018-11-23T20:50:15.866Z,8.85
2018-11-23T20:52:46.189Z,7.30
2018-11-23T20:55:16.249Z,8.08
2018-11-23T20:57:46.369Z,8.10
2018-11-23T21:00:16.381Z,9.23
2018-11-23T21:02:45.951Z,9.13
2018-11-23T21:05:16.732Z,9.03
2018-11-23T21:07:45.606Z,8.98
2018-11-23T21:10:24.530Z,9.63
2018-11-23T21:12:54.115Z,8.30
2018-11-23T21:15:28.276Z,8.60
2018-11-23T21:17:58.377Z,10.25
2018-11-23T21:20:27.486Z,9.40
2018-11-23T21:22:56.555Z,8.40
2018-11-23T21:25:25.733Z,8.18
2018-11-23T21:27:55.196Z,7.87
2018-11-23T21:30:24.632Z,6.95
2018-11-23T21:32:55.561Z,6.55
2018-11-23T21:35:24.845Z,8.38
2018-11-23T21:37:54.473Z,7.22
2018-11-23T21:40:23.386Z,7.15
2018-11-23T21:42:53.087Z,8.13
2018-11-23T21:45:22.349Z,7.42
2018-11-23T21:47:51.710Z,6.53
2018-11-23T21:50:25.330Z,6.30
2018-11-23T21:52:50.295Z,7.33
2018-11-23T21:55:22.285Z,6.62
2018-11-23T21:57:51.748Z,5.53
2018-11-23T22:00:21.054Z,5.83
2018-11-23T22:02:50.108Z,6.00
2018-11-23T22:05:20.427Z,5.33
2018-11-23T22:07:49.669Z,6.90
2018-11-23T22:10:19.568Z,6.33
2018-11-23T22:12:48.684Z,7.12
2018-11-23T22:15:19.413Z,5.90
2018-11-23T22:17:49.190Z,7.05
2018-11-23T22:20:19.580Z,7.30
2018-11-23T22:22:49.233Z,7.47
2018-11-23T22:25:19.494Z,7.30
2018-11-23T22:27:48.280Z,7.40
2018-11-23T22:30:18.725Z,8.25
2018-11-23T22:32:48.143Z,8.28
2018-11-23T22:35:17.786Z,7.17
2018-11-23T22:37:46.598Z,7.85
2018-11-23T22:40:18.646Z,8.13
2018-11-23T22:42:48.830Z,8.45
2018-11-23T22:45:17.877Z,7.08
2018-11-23T22:47:47.647Z,7.92
2018-11-23T22:50:19.282Z,7.47
2018-11-23T22:52:48.122Z,6.90
2018-11-23T22:55:18.076Z,6.95
2018-11-23T22:57:47.022Z,6.60
2018-11-23T23:00:26.249Z,7.55
2018-11-23T23:02:55.304Z,6.62
2018-11-23T23:05:24.862Z,8.40
2018-11-23T23:07:54.433Z,7.40
2018-11-23T23:10:24.000Z,7.37
2018-11-23T23:12:53.503Z,8.33
2018-11-23T23:15:23.079Z,8.38
2018-11-23T23:17:52.503Z,8.90
2018-11-23T23:20:22.507Z,8.00
2018-11-23T23:22:51.544Z,8.53
2018-11-23T23:25:20.341Z,7.15
2018-11-23T23:27:49.934Z,7.67
2018-11-23T23:30:19.461Z,7.65
2018-11-23T23:32:49.296Z,8.05
2018-11-23T23:35:18.376Z,7.95
2018-11-23T23:37:47.575Z,7.30
2018-11-23T23:40:17.531Z,6.85
2018-11-23T23:42:47.042Z,7.60
2018-11-23T23:45:17.622Z,7.58
2018-11-23T23:47:46.599Z,7.72
2018-11-23T23:50:19.615Z,7.62
2018-11-23T23:52:48.471Z,6.72
2018-11-23T23:55:18.658Z,7.87
2018-11-23T23:57:48.464Z,7.00
